createdAt,value
2023-05-08T00:00:50.799Z,95544.94
2023-05-08T00:03:19.292Z,95548.38
2023-05-08T00:05:47.587Z,95553.69
2023-05-08T00:08:15.558Z,95551.53
2023-05-08T00:10:44.833Z,95553.41
2023-05-08T00:13:13.046Z,95554.19
2023-05-08T00:15:41.116Z,95544.13
2023-05-08T00:18:09.852Z,95545.44
2023-05-08T00:20:37.902Z,95556.31
2023-05-08T00:23:06.535Z,95558.97
2023-05-08T00:25:34.653Z,95565.34
2023-05-08T00:28:04.134Z,95564.81
2023-05-08T00:30:32.253Z,95566.94
2023-05-08T00:33:00.395Z,95561.09
2023-05-08T00:35:29.087Z,95562.13
2023-05-08T00:37:57.077Z,95569.84
2023-05-08T00:40:25.376Z,95565.59
2023-05-08T00:42:54.412Z,95569.56
2023-05-08T00:45:23.994Z,95570.63
2023-05-08T00:47:52.704Z,95569.03
2023-05-08T00:50:21.018Z,95571.69
2023-05-08T00:52:49.446Z,95566.13
2023-05-08T00:55:17.522Z,95566.63
2023-05-08T00:57:49.296Z,95568.19
2023-05-08T01:00:19.649Z,95565.53
2023-05-08T01:02:49.186Z,95564.50
2023-05-08T01:05:17.624Z,95565.56
2023-05-08T01:07:46.728Z,95563.44
2023-05-08T01:10:15.075Z,95569.56
2023-05-08T01:13:00.530Z,95570.34
2023-05-08T01:15:45.606Z,95565.84
2023-05-08T01:18:21.151Z,95567.41
2023-05-08T01:20:58.140Z,95571.13
2023-05-08T01:23:59.325Z,95570.59
2023-05-08T01:27:06.345Z,95574.84
2023-05-08T01:30:08.265Z,95575.91
2023-05-08T01:32:42.143Z,95575.66
2023-05-08T01:35:23.792Z,95580.97
2023-05-08T01:37:59.122Z,95579.38
2023-05-08T01:40:36.183Z,95587.06
2023-05-08T01:43:15.378Z,95584.72
2023-05-08T01:45:54.089Z,95582.84
2023-05-08T01:48:31.494Z,95586.56
2023-05-08T01:51:06.058Z,95586.03
2023-05-08T01:53:40.052Z,95590.78
2023-05-08T01:56:13.218Z,95590.56
2023-05-08T01:58:44.408Z,95591.88
2023-05-08T02:01:16.256Z,95592.94
2023-05-08T02:03:48.457Z,95597.69
2023-05-08T02:06:22.152Z,95600.63
2023-05-08T02:08:52.850Z,95596.06
2023-05-08T02:11:24.833Z,95600.03
2023-05-08T02:13:54.733Z,95603.50
2023-05-08T02:16:25.086Z,95599.00
2023-05-08T02:18:57.853Z,95597.41
2023-05-08T02:21:28.995Z,95598.22
2023-05-08T02:23:59.306Z,95596.59
2023-05-08T02:26:29.687Z,95597.66
2023-05-08T02:28:59.825Z,95594.19
2023-05-08T02:31:30.826Z,95593.91
2023-05-08T02:34:02.730Z,95601.56
2023-05-08T02:36:32.809Z,95607.41
2023-05-08T02:39:03.963Z,95603.41
2023-05-08T02:41:35.542Z,95598.09
2023-05-08T02:44:04.176Z,95601.53
2023-05-08T02:46:43.039Z,95609.50
2023-05-08T02:49:26.536Z,95607.91
2023-05-08T02:51:58.655Z,95606.63
2023-05-08T02:54:39.601Z,95603.16
2023-05-08T02:57:16.663Z,95603.66
2023-05-08T02:59:52.819Z,95602.59
2023-05-08T03:02:33.780Z,95605.53
2023-05-08T03:05:12.611Z,95599.69
2023-05-08T03:07:43.038Z,95606.06
2023-05-08T03:10:16.000Z,95608.72
2023-05-08T03:12:47.684Z,95606.56
2023-05-08T03:15:25.080Z,95607.88
2023-05-08T03:17:58.783Z,95605.47
2023-05-08T03:20:36.367Z,95606.78
2023-05-08T03:23:06.813Z,95605.72
2023-05-08T03:25:39.363Z,95607.56
2023-05-08T03:28:08.751Z,95603.84
2023-05-08T03:30:38.957Z,95603.31
2023-05-08T03:33:11.692Z,95605.97
2023-05-08T03:35:43.332Z,95605.69
2023-05-08T03:38:12.359Z,95610.44
2023-05-08T03:40:42.808Z,95610.94
2023-05-08T03:43:12.858Z,95605.31
2023-05-08T03:45:42.059Z,95602.09
2023-05-08T03:48:10.898Z,95609.75
2023-05-08T03:50:41.498Z,95610.25
2023-05-08T03:53:11.123Z,95618.19
2023-05-08T03:55:40.916Z,95615.81
2023-05-08T03:58:18.913Z,95617.91
2023-05-08T04:01:02.892Z,95623.44
2023-05-08T04:03:50.492Z,95627.94
2023-05-08T04:06:38.799Z,95628.97
2023-05-08T04:09:20.842Z,95632.88
2023-05-08T04:12:00.316Z,95635.78
2023-05-08T04:14:35.714Z,95646.97
2023-05-08T04:17:11.150Z,95642.44
2023-05-08T04:19:47.317Z,95647.50
2023-05-08T04:22:21.509Z,95645.53
2023-05-08T04:24:54.745Z,95655.25
2023-05-08T04:27:23.756Z,95653.88
2023-05-08T04:29:52.739Z,95647.78
2023-05-08T04:32:23.080Z,95659.44
2023-05-08T04:34:52.416Z,95652.25
2023-05-08T04:37:31.854Z,95660.16
2023-05-08T04:40:03.941Z,95660.84
2023-05-08T04:42:33.677Z,95657.13
2023-05-08T04:45:02.526Z,95668.97
2023-05-08T04:47:31.140Z,95661.91
2023-05-08T04:50:00.678Z,95667.44
2023-05-08T04:52:32.604Z,95669.56
2023-05-08T04:55:01.207Z,95665.53
2023-05-08T04:57:31.151Z,95669.75
2023-05-08T04:59:59.465Z,95669.50
2023-05-08T05:02:49.474Z,95666.06
2023-05-08T05:05:18.704Z,95669.97
2023-05-08T05:07:48.497Z,95672.69
2023-05-08T05:10:17.068Z,95671.03
2023-05-08T05:12:45.202Z,95677.44
2023-05-08T05:15:14.199Z,95675.09
2023-05-08T05:17:43.982Z,95682.22
2023-05-08T05:20:13.720Z,95681.44
2023-05-08T05:22:41.862Z,95686.66
2023-05-08T05:25:12.936Z,95686.84
2023-05-08T05:27:41.556Z,95695.38
2023-05-08T05:30:10.691Z,95688.50
2023-05-08T05:32:39.167Z,95694.06
2023-05-08T05:35:10.210Z,95698.63
2023-05-08T05:37:38.428Z,95701.75
2023-05-08T05:40:08.457Z,95700.41
2023-05-08T05:42:38.833Z,95702.50
2023-05-08T05:45:10.318Z,95703.06
2023-05-08T05:47:38.428Z,95708.97
2023-05-08T05:50:08.356Z,95714.25
2023-05-08T05:52:36.457Z,95705.25
2023-05-08T05:55:06.702Z,95706.56
2023-05-08T05:57:35.031Z,95709.50
2023-05-08T06:00:06.308Z,95722.88
2023-05-08T06:02:42.918Z,95714.28
2023-05-08T06:05:15.284Z,95718.25
2023-05-08T06:07:43.514Z,95714.59
2023-05-08T06:10:12.726Z,95722.34
2023-05-08T06:12:41.006Z,95721.41
2023-05-08T06:15:14.791Z,95718.00
2023-05-08T06:17:44.613Z,95717.00
2023-05-08T06:20:13.038Z,95727.94
2023-05-08T06:22:41.675Z,95717.41
2023-05-08T06:25:11.490Z,95723.06
2023-05-08T06:27:40.290Z,95721.47
2023-05-08T06:30:10.808Z,95725.97
2023-05-08T06:32:40.403Z,95725.13
2023-05-08T06:35:10.623Z,95722.94
2023-05-08T06:37:38.903Z,95728.78
2023-05-08T06:40:12.275Z,95728.31
2023-05-08T06:42:41.974Z,95729.44
2023-05-08T06:45:10.941Z,95729.25
2023-05-08T06:47:40.886Z,95732.78
2023-05-08T06:50:10.076Z,95733.59
2023-05-08T06:52:38.974Z,95735.44
2023-05-08T06:55:07.750Z,95737.09
2023-05-08T06:57:36.087Z,95736.69
2023-05-08T07:00:04.978Z,95728.56
2023-05-08T07:02:33.952Z,95730.69
2023-05-08T07:05:03.881Z,95737.56
2023-05-08T07:07:32.868Z,95734.66
2023-05-08T07:10:00.904Z,95742.38
2023-05-08T07:12:29.089Z,95742.31
2023-05-08T07:14:57.983Z,95741.09
2023-05-08T07:17:26.988Z,95742.03
2023-05-08T07:19:55.172Z,95747.56
2023-05-08T07:22:24.607Z,95748.44
2023-05-08T07:24:52.801Z,95749.59
2023-05-08T07:27:20.759Z,95753.00
2023-05-08T07:29:49.121Z,95750.53
2023-05-08T07:32:17.689Z,95753.78
2023-05-08T07:34:45.953Z,95745.94
2023-05-08T07:37:14.143Z,95752.31
2023-05-08T07:39:43.962Z,95753.44
2023-05-08T07:42:14.022Z,95759.06
2023-05-08T07:44:53.668Z,95756.63
2023-05-08T07:47:22.924Z,95754.22
2023-05-08T07:49:51.017Z,95762.22
2023-05-08T07:52:19.228Z,95763.38
2023-05-08T07:54:48.859Z,95761.50
2023-05-08T07:57:16.922Z,95760.75
2023-05-08T07:59:45.288Z,95758.28
2023-05-08T08:02:13.422Z,95758.00
2023-05-08T08:04:41.455Z,95759.28
2023-05-08T08:07:09.920Z,95758.13
2023-05-08T08:09:38.332Z,95758.44
2023-05-08T08:12:08.122Z,95758.34
2023-05-08T08:14:36.591Z,95757.34
2023-05-08T08:17:04.543Z,95759.00
2023-05-08T08:19:32.798Z,95763.94
2023-05-08T08:22:01.067Z,95758.81
2023-05-08T08:24:30.548Z,95761.28
2023-05-08T08:26:58.949Z,95763.09
2023-05-08T08:29:28.469Z,95764.38
2023-05-08T08:31:56.636Z,95761.75
2023-05-08T08:34:24.847Z,95760.53
2023-05-08T08:36:53.088Z,95763.97
2023-05-08T08:39:21.266Z,95761.88
2023-05-08T08:41:49.394Z,95759.34
2023-05-08T08:44:17.499Z,95762.53
2023-05-08T08:46:52.717Z,95756.31
2023-05-08T08:49:29.495Z,95758.28
2023-05-08T08:52:03.184Z,95750.97
2023-05-08T08:54:36.170Z,95751.53
2023-05-08T08:57:08.787Z,95748.63
2023-05-08T08:59:39.677Z,95755.22
2023-05-08T09:02:15.059Z,95746.59
2023-05-08T09:04:42.990Z,95752.91
2023-05-08T09:07:13.116Z,95747.03
2023-05-08T09:09:44.328Z,95747.53
2023-05-08T09:12:14.270Z,95749.41
2023-05-08T09:14:42.698Z,95751.84
2023-05-08T09:17:12.551Z,95748.34
2023-05-08T09:19:41.750Z,95749.28
2023-05-08T09:22:10.838Z,95748.59
2023-05-08T09:24:58.766Z,95753.38
2023-05-08T09:27:30.446Z,95750.59
2023-05-08T09:30:05.944Z,95753.22
2023-05-08T09:32:38.825Z,95749.63
2023-05-08T09:35:09.324Z,95754.13
2023-05-08T09:37:40.608Z,95754.63
2023-05-08T09:40:18.756Z,95758.88
2023-05-08T09:42:47.180Z,95750.31
2023-05-08T09:45:28.715Z,95755.59
2023-05-08T09:47:58.588Z,95753.88
2023-05-08T09:50:27.611Z,95743.66
2023-05-08T09:52:56.848Z,95751.56
2023-05-08T09:55:25.006Z,95752.19
2023-05-08T09:57:56.576Z,95745.66
2023-05-08T10:00:25.890Z,95755.09
2023-05-08T10:03:00.136Z,95753.22
2023-05-08T10:05:31.839Z,95749.13
2023-05-08T10:08:18.546Z,95750.13
2023-05-08T10:10:46.629Z,95750.03
2023-05-08T10:13:15.191Z,95758.56
2023-05-08T10:15:45.225Z,95761.63
2023-05-08T10:18:18.664Z,95756.81
2023-05-08T10:20:50.310Z,95758.03
2023-05-08T10:23:19.429Z,95747.81
2023-05-08T10:25:53.544Z,95757.72
2023-05-08T10:28:33.146Z,95758.75
2023-05-08T10:31:05.343Z,95754.25
2023-05-08T10:33:36.619Z,95760.13
2023-05-08T10:36:06.498Z,95758.38
2023-05-08T10:38:36.134Z,95750.81
2023-05-08T10:41:04.510Z,95747.69
2023-05-08T10:43:33.377Z,95752.63
2023-05-08T10:46:10.744Z,95756.59
2023-05-08T10:48:55.100Z,95747.00
2023-05-08T10:51:34.079Z,95741.59
2023-05-08T10:54:09.198Z,95749.22
2023-05-08T10:56:39.612Z,95744.00
2023-05-08T10:59:07.662Z,95744.75
2023-05-08T11:01:40.178Z,95744.38
2023-05-08T11:04:21.646Z,95750.31
2023-05-08T11:06:53.272Z,95741.75
2023-05-08T11:09:23.408Z,95733.81
2023-05-08T11:12:03.737Z,95739.06
2023-05-08T11:14:34.829Z,95740.75
2023-05-08T11:17:08.330Z,95740.31
2023-05-08T11:19:56.775Z,95738.91
2023-05-08T11:22:30.773Z,95728.47
2023-05-08T11:25:08.844Z,95727.63
2023-05-08T11:28:01.892Z,95731.75
2023-05-08T11:30:41.480Z,95736.53
2023-05-08T11:33:19.206Z,95734.44
2023-05-08T11:35:52.489Z,95729.00
2023-05-08T11:38:32.574Z,95729.53
2023-05-08T11:41:12.473Z,95735.25
2023-05-08T11:44:18.062Z,95740.69
2023-05-08T11:46:52.865Z,95739.00
2023-05-08T11:49:27.068Z,95724.47
2023-05-08T11:52:00.729Z,95732.06
2023-05-08T11:54:31.966Z,95740.22
2023-05-08T11:57:01.707Z,95737.84
2023-05-08T11:59:30.056Z,95736.44
2023-05-08T12:02:07.627Z,95737.69
2023-05-08T12:04:48.332Z,95739.13
2023-05-08T12:07:18.638Z,95732.53
2023-05-08T12:09:48.683Z,95745.44
2023-05-08T12:12:16.999Z,95733.88
2023-05-08T12:14:45.297Z,95741.25
2023-05-08T12:17:19.390Z,95737.84
2023-05-08T12:19:47.683Z,95746.53
2023-05-08T12:22:17.478Z,95738.38
2023-05-08T12:24:45.538Z,95745.44
2023-05-08T12:27:19.693Z,95737.09
2023-05-08T12:29:48.444Z,95745.50
2023-05-08T12:32:20.426Z,95734.13
2023-05-08T12:34:49.116Z,95734.13
2023-05-08T12:37:28.220Z,95733.97
2023-05-08T12:39:57.011Z,95727.59
2023-05-08T12:42:43.169Z,95740.06
2023-05-08T12:45:18.640Z,95737.47
2023-05-08T12:47:48.163Z,95735.38
2023-05-08T12:50:17.757Z,95732.97
2023-05-08T12:52:48.474Z,95742.78
2023-05-08T12:55:23.075Z,95733.94
2023-05-08T12:57:52.252Z,95735.38
2023-05-08T13:00:20.603Z,95736.22
2023-05-08T13:02:56.267Z,95729.28
2023-05-08T13:05:25.469Z,95730.59
2023-05-08T13:08:01.009Z,95732.47
2023-05-08T13:10:45.236Z,95733.78
2023-05-08T13:13:19.711Z,95728.84
2023-05-08T13:15:50.618Z,95728.34
2023-05-08T13:18:19.721Z,95725.38
2023-05-08T13:20:48.212Z,95728.13
2023-05-08T13:23:17.926Z,95723.38
2023-05-08T13:25:45.971Z,95720.19
2023-05-08T13:28:14.235Z,95730.84
2023-05-08T13:30:42.502Z,95720.34
2023-05-08T13:33:10.782Z,95717.19
2023-05-08T13:35:39.836Z,95717.53
2023-05-08T13:38:07.939Z,95727.31
2023-05-08T13:40:38.297Z,95716.44
2023-05-08T13:43:06.543Z,95712.97
2023-05-08T13:45:34.569Z,95716.34
2023-05-08T13:48:02.666Z,95716.03
2023-05-08T13:50:30.617Z,95714.16
2023-05-08T13:52:58.883Z,95710.19
2023-05-08T13:55:27.243Z,95713.63
2023-05-08T13:57:58.738Z,95715.19
2023-05-08T14:00:28.222Z,95710.75
2023-05-08T14:02:56.592Z,95717.81
2023-05-08T14:05:24.703Z,95715.13
2023-05-08T14:07:52.861Z,95710.41
2023-05-08T14:10:22.828Z,95715.44
2023-05-08T14:12:50.989Z,95711.72
2023-05-08T14:15:22.223Z,95717.81
2023-05-08T14:17:51.468Z,95720.00
2023-05-08T14:20:20.369Z,95712.56
2023-05-08T14:22:48.283Z,95711.44
2023-05-08T14:25:17.237Z,95718.94
2023-05-08T14:27:45.855Z,95715.41
2023-05-08T14:30:16.132Z,95713.13
2023-05-08T14:32:45.817Z,95717.53
2023-05-08T14:35:14.817Z,95709.75
2023-05-08T14:37:43.150Z,95720.19
2023-05-08T14:40:11.317Z,95713.31
2023-05-08T14:42:39.757Z,95713.31
2023-05-08T14:45:09.010Z,95707.47
2023-05-08T14:47:37.099Z,95708.06
2023-05-08T14:50:08.411Z,95714.22
2023-05-08T14:52:37.263Z,95710.50
2023-05-08T14:55:06.400Z,95713.25
2023-05-08T14:57:34.508Z,95710.34
2023-05-08T15:00:02.481Z,95712.88
2023-05-08T15:02:31.054Z,95715.56
2023-05-08T15:04:59.196Z,95719.00
2023-05-08T15:07:29.171Z,95714.41
2023-05-08T15:09:57.231Z,95710.13
2023-05-08T15:12:25.430Z,95718.13
2023-05-08T15:14:53.380Z,95716.81
2023-05-08T15:17:23.024Z,95715.22
2023-05-08T15:19:51.805Z,95712.53
2023-05-08T15:24:49.305Z,95720.50
2023-05-08T15:27:17.471Z,95708.91
2023-05-08T15:29:45.386Z,95718.41
2023-05-08T15:32:13.371Z,95718.97
2023-05-08T15:34:41.242Z,95720.22
2023-05-08T15:37:09.466Z,95721.78
2023-05-08T15:39:37.605Z,95725.41
2023-05-08T15:42:07.384Z,95712.81
2023-05-08T15:44:52.622Z,95711.00
2023-05-08T15:47:23.865Z,95710.44
2023-05-08T15:49:52.170Z,95707.63
2023-05-08T15:52:20.215Z,95703.22
2023-05-08T15:54:49.153Z,95711.78
2023-05-08T15:57:18.680Z,95708.69
2023-05-08T15:59:46.811Z,95713.78
2023-05-08T16:02:15.139Z,95708.97
2023-05-08T16:04:43.076Z,95715.81
2023-05-08T16:07:11.040Z,95707.63
2023-05-08T16:09:39.068Z,95702.03
2023-05-08T16:12:07.854Z,95704.19
2023-05-08T16:14:37.363Z,95695.13
2023-05-08T16:17:06.690Z,95698.34
2023-05-08T16:19:38.442Z,95697.53
2023-05-08T16:22:06.907Z,95699.41
2023-05-08T16:24:34.925Z,95701.53
2023-05-08T16:27:02.908Z,95689.25
2023-05-08T16:29:31.118Z,95691.69
2023-05-08T16:32:00.357Z,95693.56
2023-05-08T16:34:28.621Z,95698.59
2023-05-08T16:36:58.482Z,95709.50
2023-05-08T16:39:26.799Z,95703.13
2023-05-08T16:41:56.502Z,95701.53
2023-05-08T16:44:24.470Z,95695.69
2023-05-08T16:46:53.189Z,95695.13
2023-05-08T16:49:22.631Z,95688.22
2023-05-08T16:51:50.970Z,95696.13
2023-05-08T16:54:19.021Z,95700.38
2023-05-08T16:56:47.232Z,95703.06
2023-05-08T16:59:15.456Z,95699.38
2023-05-08T17:01:43.653Z,95696.19
2023-05-08T17:04:12.412Z,95705.22
2023-05-08T17:06:41.847Z,95715.53
2023-05-08T17:09:11.884Z,95715.59
2023-05-08T17:11:40.397Z,95716.31
2023-05-08T17:14:08.299Z,95717.88
2023-05-08T17:16:36.449Z,95728.50
2023-05-08T17:19:04.472Z,95715.28
2023-05-08T17:21:32.872Z,95721.88
2023-05-08T17:24:02.680Z,95731.09
2023-05-08T17:26:33.375Z,95720.78
2023-05-08T17:29:01.588Z,95718.13
2023-05-08T17:31:29.761Z,95728.75
2023-05-08T17:33:57.699Z,95729.06
2023-05-08T17:36:26.094Z,95721.94
2023-05-08T17:38:54.090Z,95726.19
2023-05-08T17:41:24.031Z,95723.50
2023-05-08T17:43:53.310Z,95723.50
2023-05-08T17:46:21.647Z,95728.50
2023-05-08T17:48:50.045Z,95734.09
2023-05-08T17:51:18.176Z,95742.59
2023-05-08T17:53:46.778Z,95741.25
2023-05-08T17:56:16.343Z,95737.75
2023-05-08T17:58:46.675Z,95744.28
2023-05-08T18:01:15.002Z,95742.09
2023-05-08T18:03:44.959Z,95744.97
2023-05-08T18:06:16.298Z,95750.84
2023-05-08T18:08:45.207Z,95752.97
2023-05-08T18:11:17.494Z,95747.22
2023-05-08T18:13:47.382Z,95747.63
2023-05-08T18:16:17.970Z,95753.78
2023-05-08T18:18:47.086Z,95749.78
2023-05-08T18:21:15.824Z,95753.50
2023-05-08T18:23:43.743Z,95756.75
2023-05-08T18:26:15.031Z,95759.66
2023-05-08T18:28:43.744Z,95760.94
2023-05-08T18:31:15.868Z,95763.56
2023-05-08T18:33:43.972Z,95761.09
2023-05-08T18:36:12.179Z,95762.13
2023-05-08T18:38:41.537Z,95765.69
2023-05-08T18:41:09.601Z,95761.38
2023-05-08T18:43:37.868Z,95759.75
2023-05-08T18:46:09.862Z,95771.38
2023-05-08T18:48:39.479Z,95769.41
2023-05-08T18:51:07.799Z,95765.63
2023-05-08T18:53:38.443Z,95776.34
2023-05-08T18:56:07.579Z,95771.66
2023-05-08T18:58:35.780Z,95765.66
2023-05-08T19:01:03.807Z,95773.66
2023-05-08T19:03:32.033Z,95770.63
2023-05-08T19:06:02.176Z,95767.38
2023-05-08T19:08:30.273Z,95771.38
2023-05-08T19:10:58.440Z,95768.41
2023-05-08T19:13:26.644Z,95772.34
2023-05-08T19:15:54.933Z,95772.97
2023-05-08T19:18:22.966Z,95769.56
2023-05-08T19:20:50.867Z,95775.56
2023-05-08T19:23:20.403Z,95776.66
2023-05-08T19:25:48.566Z,95768.97
2023-05-08T19:28:16.655Z,95770.25
2023-05-08T19:30:44.754Z,95778.09
2023-05-08T19:33:13.005Z,95773.78
2023-05-08T19:35:41.084Z,95778.09
2023-05-08T19:38:09.170Z,95781.38
2023-05-08T19:40:51.956Z,95786.09
2023-05-08T19:43:24.829Z,95776.44
2023-05-08T19:45:52.946Z,95783.09
2023-05-08T19:48:22.089Z,95781.69
2023-05-08T19:50:52.694Z,95784.16
2023-05-08T19:53:22.798Z,95786.38
2023-05-08T19:55:52.958Z,95783.53
2023-05-08T19:58:21.235Z,95784.94
2023-05-08T20:00:51.658Z,95786.25
2023-05-08T20:03:21.311Z,95788.34
2023-05-08T20:05:52.967Z,95784.94
2023-05-08T20:08:21.839Z,95789.31
2023-05-08T20:10:52.765Z,95790.03
2023-05-08T20:13:21.171Z,95790.28
2023-05-08T20:15:49.312Z,95787.50
2023-05-08T20:18:17.273Z,95789.75
2023-05-08T20:20:46.378Z,95781.50
2023-05-08T20:23:14.536Z,95786.06
2023-05-08T20:25:46.082Z,95790.00
2023-05-08T20:28:15.519Z,95783.66
2023-05-08T20:30:43.659Z,95782.31
2023-05-08T20:33:12.236Z,95781.19
2023-05-08T20:35:41.068Z,95785.06
2023-05-08T20:38:09.018Z,95778.69
2023-05-08T20:40:37.454Z,95776.44
2023-05-08T20:43:05.943Z,95780.81
2023-05-08T20:45:35.474Z,95780.88
2023-05-08T20:48:04.207Z,95777.91
2023-05-08T20:50:32.246Z,95768.63
2023-05-08T20:53:00.438Z,95765.41
2023-05-08T20:55:28.801Z,95769.09
2023-05-08T20:57:57.682Z,95763.34
2023-05-08T21:00:26.516Z,95768.66
2023-05-08T21:02:55.993Z,95763.03
2023-05-08T21:05:24.407Z,95766.88
2023-05-08T21:07:58.258Z,95763.78
2023-05-08T21:10:28.646Z,95763.78
2023-05-08T21:12:56.721Z,95763.94
2023-05-08T21:15:24.755Z,95760.66
2023-05-08T21:17:52.777Z,95763.22
2023-05-08T21:20:22.809Z,95765.13
2023-05-08T21:22:50.892Z,95759.03
2023-05-08T21:25:19.209Z,95760.41
2023-05-08T21:27:47.388Z,95755.94
2023-05-08T21:30:16.555Z,95749.25
2023-05-08T21:32:46.729Z,95747.66
2023-05-08T21:35:15.697Z,95756.19
2023-05-08T21:37:45.781Z,95753.75
2023-05-08T21:40:14.246Z,95751.34
2023-05-08T21:42:42.182Z,95745.53
2023-05-08T21:45:11.554Z,95744.13
2023-05-08T21:47:39.762Z,95739.59
2023-05-08T21:50:09.158Z,95735.03
2023-05-08T21:52:37.130Z,95738.97
2023-05-08T21:55:08.704Z,95737.03
2023-05-08T21:57:37.315Z,95728.28
2023-05-08T22:00:06.865Z,95726.84
2023-05-08T22:02:35.271Z,95722.63
2023-05-08T22:05:04.184Z,95719.50
2023-05-08T22:07:32.293Z,95719.31
2023-05-08T22:10:00.746Z,95725.78
2023-05-08T22:12:30.050Z,95727.19
2023-05-08T22:15:01.641Z,95722.19
2023-05-08T22:17:31.152Z,95724.97
2023-05-08T22:19:59.546Z,95727.94
2023-05-08T22:22:28.040Z,95715.13
2023-05-08T22:24:56.442Z,95715.50
2023-05-08T22:27:24.975Z,95722.88
2023-05-08T22:29:54.402Z,95716.44
2023-05-08T22:32:22.821Z,95718.84
2023-05-08T22:34:51.118Z,95716.75
2023-05-08T22:37:19.280Z,95719.19
2023-05-08T22:39:47.231Z,95728.00
2023-05-08T22:42:15.878Z,95731.91
2023-05-08T22:44:44.723Z,95735.03
2023-05-08T22:47:14.718Z,95729.75
2023-05-08T22:49:43.211Z,95720.94
2023-05-08T22:52:11.254Z,95728.84
2023-05-08T22:54:39.395Z,95721.72
2023-05-08T22:57:07.508Z,95721.47
2023-05-08T22:59:35.777Z,95727.09
2023-05-08T23:02:03.680Z,95724.47
2023-05-08T23:04:34.360Z,95717.00
2023-05-08T23:07:03.267Z,95718.03
2023-05-08T23:09:32.026Z,95718.84
2023-05-08T23:12:00.151Z,95717.00
2023-05-08T23:14:28.432Z,95709.81
2023-05-08T23:16:56.596Z,95713.03
2023-05-08T23:19:25.004Z,95712.00
2023-05-08T23:21:54.462Z,95709.56
2023-05-08T23:24:22.552Z,95704.06
2023-05-08T23:26:52.480Z,95706.38
2023-05-08T23:29:20.536Z,95705.13
2023-05-08T23:31:48.830Z,95698.72
2023-05-08T23:34:16.919Z,95699.06
2023-05-08T23:36:45.232Z,95693.91
2023-05-08T23:39:14.893Z,95684.28
2023-05-08T23:41:42.881Z,95686.19
2023-05-08T23:44:11.008Z,95677.63
2023-05-08T23:46:39.355Z,95681.53
2023-05-08T23:49:08.457Z,95673.25
2023-05-08T23:51:36.385Z,95679.44
2023-05-08T23:54:05.071Z,95672.03
2023-05-08T23:56:34.369Z,95673.75
2023-05-08T23:59:02.482Z,95666.97
